sensor_id;sensor_type;location;lat;lon;timestamp;P1;durP1;ratioP1;P2;durP2;ratioP2
30036;SDS011;36325;51.512;-0.382;2023-09-08T00:00:58;15.30;;;6.72;;
30036;SDS011;36325;51.512;-0.382;2023-09-08T00:03:25;13.45;;;6.35;;
30036;SDS011;36325;51.512;-0.382;2023-09-08T00:05:53;15.13;;;7.00;;
30036;SDS011;36325;51.512;-0.382;2023-09-08T00:08:20;10.00;;;6.47;;
30036;SDS011;36325;51.512;-0.382;2023-09-08T00:10:48;10.38;;;6.10;;
30036;SDS011;36325;51.512;-0.382;2023-09-08T00:13:16;8.85;;;5.43;;
30036;SDS011;36325;51.512;-0.382;2023-09-08T00:15:44;13.80;;;5.88;;
30036;SDS011;36325;51.512;-0.382;2023-09-08T00:18:13;10.88;;;6.07;;
30036;SDS011;36325;51.512;-0.382;2023-09-08T00:20:41;12.27;;;6.28;;
30036;SDS011;36325;51.512;-0.382;2023-09-08T00:23:08;13.15;;;6.25;;
30036;SDS011;36325;51.512;-0.382;2023-09-08T00:25:35;18.95;;;6.57;;
30036;SDS011;36325;51.512;-0.382;2023-09-08T00:28:03;14.50;;;6.82;;
30036;SDS011;36325;51.512;-0.382;2023-09-08T00:30:35;10.10;;;6.50;;
30036;SDS011;36325;51.512;-0.382;2023-09-08T00:33:02;12.52;;;6.20;;
30036;SDS011;36325;51.512;-0.382;2023-09-08T00:35:30;9.60;;;6.55;;
30036;SDS011;36325;51.512;-0.382;2023-09-08T00:37:58;10.32;;;6.80;;
30036;SDS011;36325;51.512;-0.382;2023-09-08T00:40:26;10.68;;;5.90;;
30036;SDS011;36325;51.512;-0.382;2023-09-08T00:42:54;15.18;;;6.95;;
30036;SDS011;36325;51.512;-0.382;2023-09-08T00:45:22;12.40;;;7.03;;
30036;SDS011;36325;51.512;-0.382;2023-09-08T00:47:51;14.63;;;7.15;;
30036;SDS011;36325;51.512;-0.382;2023-09-08T00:50:18;12.95;;;6.85;;
30036;SDS011;36325;51.512;-0.382;2023-09-08T00:52:47;10.25;;;6.00;;
30036;SDS011;36325;51.512;-0.382;2023-09-08T00:55:17;12.10;;;6.93;;
30036;SDS011;36325;51.512;-0.382;2023-09-08T00:57:45;13.23;;;7.28;;
30036;SDS011;36325;51.512;-0.382;2023-09-08T01:00:13;14.02;;;7.25;;
30036;SDS011;36325;51.512;-0.382;2023-09-08T01:02:41;12.50;;;6.80;;
30036;SDS011;36325;51.512;-0.382;2023-09-08T01:05:12;12.77;;;7.13;;
30036;SDS011;36325;51.512;-0.382;2023-09-08T01:07:42;12.52;;;6.40;;
30036;SDS011;36325;51.512;-0.382;2023-09-08T01:10:10;15.38;;;7.28;;
30036;SDS011;36325;51.512;-0.382;2023-09-08T01:12:39;16.23;;;7.05;;
30036;SDS011;36325;51.512;-0.382;2023-09-08T01:15:07;14.85;;;6.95;;
30036;SDS011;36325;51.512;-0.382;2023-09-08T01:17:35;11.85;;;7.32;;
30036;SDS011;36325;51.512;-0.382;2023-09-08T01:25:23;15.05;;;7.85;;
30036;SDS011;36325;51.512;-0.382;2023-09-08T01:27:52;17.00;;;7.82;;
30036;SDS011;36325;51.512;-0.382;2023-09-08T01:30:21;18.67;;;7.68;;
30036;SDS011;36325;51.512;-0.382;2023-09-08T01:32:51;12.43;;;7.30;;
30036;SDS011;36325;51.512;-0.382;2023-09-08T01:35:20;17.45;;;8.30;;
30036;SDS011;36325;51.512;-0.382;2023-09-08T01:37:48;13.85;;;8.25;;
30036;SDS011;36325;51.512;-0.382;2023-09-08T01:40:16;15.52;;;8.32;;
30036;SDS011;36325;51.512;-0.382;2023-09-08T01:42:47;17.95;;;7.35;;
30036;SDS011;36325;51.512;-0.382;2023-09-08T01:45:14;13.23;;;7.90;;
30036;SDS011;36325;51.512;-0.382;2023-09-08T01:47:41;19.95;;;11.88;;
30036;SDS011;36325;51.512;-0.382;2023-09-08T01:50:10;21.90;;;13.38;;
30036;SDS011;36325;51.512;-0.382;2023-09-08T01:52:42;34.72;;;16.00;;
30036;SDS011;36325;51.512;-0.382;2023-09-08T01:55:16;25.15;;;17.15;;
30036;SDS011;36325;51.512;-0.382;2023-09-08T01:57:46;23.50;;;17.17;;
30036;SDS011;36325;51.512;-0.382;2023-09-08T02:00:14;32.95;;;18.33;;
30036;SDS011;36325;51.512;-0.382;2023-09-08T02:02:41;28.60;;;18.17;;
30036;SDS011;36325;51.512;-0.382;2023-09-08T02:05:09;25.73;;;15.18;;
30036;SDS011;36325;51.512;-0.382;2023-09-08T02:07:36;22.65;;;15.18;;
30036;SDS011;36325;51.512;-0.382;2023-09-08T02:10:03;26.08;;;16.20;;
30036;SDS011;36325;51.512;-0.382;2023-09-08T02:12:31;23.52;;;15.20;;
30036;SDS011;36325;51.512;-0.382;2023-09-08T02:14:59;30.65;;;15.88;;
30036;SDS011;36325;51.512;-0.382;2023-09-08T02:17:26;28.65;;;16.08;;
30036;SDS011;36325;51.512;-0.382;2023-09-08T02:19:54;22.70;;;16.58;;
30036;SDS011;36325;51.512;-0.382;2023-09-08T02:22:21;30.30;;;18.17;;
30036;SDS011;36325;51.512;-0.382;2023-09-08T02:24:50;31.67;;;18.77;;
30036;SDS011;36325;51.512;-0.382;2023-09-08T02:27:18;26.30;;;18.60;;
30036;SDS011;36325;51.512;-0.382;2023-09-08T02:29:48;35.03;;;18.27;;
30036;SDS011;36325;51.512;-0.382;2023-09-08T02:32:15;23.58;;;16.05;;
30036;SDS011;36325;51.512;-0.382;2023-09-08T02:34:42;21.95;;;15.77;;
30036;SDS011;36325;51.512;-0.382;2023-09-08T02:37:11;23.95;;;14.75;;
30036;SDS011;36325;51.512;-0.382;2023-09-08T02:39:38;20.00;;;12.10;;
30036;SDS011;36325;51.512;-0.382;2023-09-08T02:42:06;20.35;;;12.95;;
30036;SDS011;36325;51.512;-0.382;2023-09-08T02:44:33;21.63;;;12.75;;
30036;SDS011;36325;51.512;-0.382;2023-09-08T02:47:00;23.85;;;14.52;;
30036;SDS011;36325;51.512;-0.382;2023-09-08T02:49:28;26.85;;;15.27;;
30036;SDS011;36325;51.512;-0.382;2023-09-08T02:51:59;20.50;;;14.98;;
30036;SDS011;36325;51.512;-0.382;2023-09-08T02:54:27;33.17;;;16.08;;
30036;SDS011;36325;51.512;-0.382;2023-09-08T02:56:54;29.00;;;16.02;;
30036;SDS011;36325;51.512;-0.382;2023-09-08T02:59:21;27.10;;;16.88;;
30036;SDS011;36325;51.512;-0.382;2023-09-08T03:01:53;29.08;;;18.33;;
30036;SDS011;36325;51.512;-0.382;2023-09-08T03:04:22;27.23;;;17.42;;
30036;SDS011;36325;51.512;-0.382;2023-09-08T03:06:49;25.92;;;16.75;;
30036;SDS011;36325;51.512;-0.382;2023-09-08T03:09:18;29.38;;;15.57;;
30036;SDS011;36325;51.512;-0.382;2023-09-08T03:11:45;29.77;;;17.30;;
30036;SDS011;36325;51.512;-0.382;2023-09-08T03:14:13;31.63;;;17.98;;
30036;SDS011;36325;51.512;-0.382;2023-09-08T03:16:40;27.63;;;16.60;;
30036;SDS011;36325;51.512;-0.382;2023-09-08T03:19:08;32.15;;;19.10;;
30036;SDS011;36325;51.512;-0.382;2023-09-08T03:21:35;32.08;;;19.08;;
30036;SDS011;36325;51.512;-0.382;2023-09-08T03:24:03;28.73;;;17.80;;
30036;SDS011;36325;51.512;-0.382;2023-09-08T03:26:32;27.02;;;18.90;;
30036;SDS011;36325;51.512;-0.382;2023-09-08T03:28:59;25.55;;;18.88;;
30036;SDS011;36325;51.512;-0.382;2023-09-08T03:31:26;30.23;;;19.27;;
30036;SDS011;36325;51.512;-0.382;2023-09-08T03:33:55;29.80;;;18.58;;
30036;SDS011;36325;51.512;-0.382;2023-09-08T03:36:22;28.30;;;18.30;;
30036;SDS011;36325;51.512;-0.382;2023-09-08T03:38:51;31.17;;;18.45;;
30036;SDS011;36325;51.512;-0.382;2023-09-08T03:41:18;22.17;;;13.88;;
30036;SDS011;36325;51.512;-0.382;2023-09-08T03:43:46;29.92;;;13.38;;
30036;SDS011;36325;51.512;-0.382;2023-09-08T03:46:16;17.67;;;10.98;;
30036;SDS011;36325;51.512;-0.382;2023-09-08T03:48:44;17.45;;;9.05;;
30036;SDS011;36325;51.512;-0.382;2023-09-08T03:51:12;20.23;;;10.00;;
30036;SDS011;36325;51.512;-0.382;2023-09-08T03:53:39;19.30;;;11.50;;
30036;SDS011;36325;51.512;-0.382;2023-09-08T03:56:08;21.20;;;13.50;;
30036;SDS011;36325;51.512;-0.382;2023-09-08T03:58:35;20.55;;;14.70;;
30036;SDS011;36325;51.512;-0.382;2023-09-08T04:01:04;24.20;;;15.13;;
30036;SDS011;36325;51.512;-0.382;2023-09-08T04:03:32;22.13;;;12.32;;
30036;SDS011;36325;51.512;-0.382;2023-09-08T04:06:00;15.65;;;10.45;;
30036;SDS011;36325;51.512;-0.382;2023-09-08T04:08:27;18.98;;;10.95;;
30036;SDS011;36325;51.512;-0.382;2023-09-08T04:10:54;14.93;;;10.32;;
30036;SDS011;36325;51.512;-0.382;2023-09-08T04:13:22;15.73;;;10.73;;
30036;SDS011;36325;51.512;-0.382;2023-09-08T04:15:50;18.20;;;10.55;;
30036;SDS011;36325;51.512;-0.382;2023-09-08T04:18:18;14.55;;;10.27;;
30036;SDS011;36325;51.512;-0.382;2023-09-08T04:20:46;16.25;;;10.23;;
30036;SDS011;36325;51.512;-0.382;2023-09-08T04:23:14;14.73;;;9.50;;
30036;SDS011;36325;51.512;-0.382;2023-09-08T04:25:42;13.07;;;9.02;;
30036;SDS011;36325;51.512;-0.382;2023-09-08T04:28:09;16.00;;;8.88;;
30036;SDS011;36325;51.512;-0.382;2023-09-08T04:30:37;14.05;;;8.98;;
30036;SDS011;36325;51.512;-0.382;2023-09-08T04:33:05;14.25;;;8.32;;
30036;SDS011;36325;51.512;-0.382;2023-09-08T04:35:32;19.17;;;8.88;;
30036;SDS011;36325;51.512;-0.382;2023-09-08T04:38:00;12.77;;;8.60;;
30036;SDS011;36325;51.512;-0.382;2023-09-08T04:40:30;15.77;;;7.95;;
30036;SDS011;36325;51.512;-0.382;2023-09-08T04:42:57;12.07;;;8.65;;
30036;SDS011;36325;51.512;-0.382;2023-09-08T04:45:24;17.17;;;9.23;;
30036;SDS011;36325;51.512;-0.382;2023-09-08T04:47:52;17.60;;;9.70;;
30036;SDS011;36325;51.512;-0.382;2023-09-08T04:50:20;11.90;;;8.93;;
30036;SDS011;36325;51.512;-0.382;2023-09-08T04:52:47;12.95;;;8.98;;
30036;SDS011;36325;51.512;-0.382;2023-09-08T04:55:14;13.75;;;8.38;;
30036;SDS011;36325;51.512;-0.382;2023-09-08T04:57:44;13.00;;;8.63;;
30036;SDS011;36325;51.512;-0.382;2023-09-08T05:00:12;24.17;;;9.48;;
30036;SDS011;36325;51.512;-0.382;2023-09-08T05:02:39;17.63;;;9.30;;
30036;SDS011;36325;51.512;-0.382;2023-09-08T05:05:10;13.25;;;7.88;;
30036;SDS011;36325;51.512;-0.382;2023-09-08T05:07:37;13.85;;;8.32;;
30036;SDS011;36325;51.512;-0.382;2023-09-08T05:10:05;14.15;;;8.50;;
30036;SDS011;36325;51.512;-0.382;2023-09-08T05:12:34;24.05;;;9.25;;
30036;SDS011;36325;51.512;-0.382;2023-09-08T05:15:02;14.60;;;7.78;;
30036;SDS011;36325;51.512;-0.382;2023-09-08T05:17:38;13.02;;;8.02;;
30036;SDS011;36325;51.512;-0.382;2023-09-08T05:20:06;10.57;;;7.72;;
30036;SDS011;36325;51.512;-0.382;2023-09-08T05:22:33;12.98;;;8.00;;
30036;SDS011;36325;51.512;-0.382;2023-09-08T05:25:05;21.02;;;7.82;;
30036;SDS011;36325;51.512;-0.382;2023-09-08T05:27:33;17.08;;;9.20;;
30036;SDS011;36325;51.512;-0.382;2023-09-08T05:30:01;14.15;;;8.38;;
30036;SDS011;36325;51.512;-0.382;2023-09-08T05:32:30;21.73;;;8.88;;
30036;SDS011;36325;51.512;-0.382;2023-09-08T05:34:58;14.65;;;8.65;;
30036;SDS011;36325;51.512;-0.382;2023-09-08T05:37:26;15.48;;;9.02;;
30036;SDS011;36325;51.512;-0.382;2023-09-08T05:39:54;17.30;;;8.38;;
30036;SDS011;36325;51.512;-0.382;2023-09-08T05:42:21;18.92;;;9.02;;
30036;SDS011;36325;51.512;-0.382;2023-09-08T05:44:49;19.08;;;10.00;;
30036;SDS011;36325;51.512;-0.382;2023-09-08T05:47:16;15.85;;;9.55;;
30036;SDS011;36325;51.512;-0.382;2023-09-08T05:49:44;26.08;;;10.73;;
30036;SDS011;36325;51.512;-0.382;2023-09-08T05:52:12;23.85;;;10.27;;
30036;SDS011;36325;51.512;-0.382;2023-09-08T05:54:41;16.77;;;10.10;;
30036;SDS011;36325;51.512;-0.382;2023-09-08T05:57:08;29.95;;;10.52;;
30036;SDS011;36325;51.512;-0.382;2023-09-08T05:59:35;19.60;;;9.95;;
30036;SDS011;36325;51.512;-0.382;2023-09-08T06:02:03;15.73;;;9.35;;
30036;SDS011;36325;51.512;-0.382;2023-09-08T06:04:31;15.88;;;10.25;;
30036;SDS011;36325;51.512;-0.382;2023-09-08T06:07:03;18.42;;;9.80;;
30036;SDS011;36325;51.512;-0.382;2023-09-08T06:09:32;20.92;;;10.40;;
30036;SDS011;36325;51.512;-0.382;2023-09-08T06:11:59;22.80;;;10.68;;
30036;SDS011;36325;51.512;-0.382;2023-09-08T06:14:29;16.63;;;10.13;;
30036;SDS011;36325;51.512;-0.382;2023-09-08T06:16:56;13.82;;;9.48;;
30036;SDS011;36325;51.512;-0.382;2023-09-08T06:19:24;14.98;;;9.77;;
30036;SDS011;36325;51.512;-0.382;2023-09-08T06:21:54;19.08;;;10.90;;
30036;SDS011;36325;51.512;-0.382;2023-09-08T06:24:24;102.50;;;15.80;;
30036;SDS011;36325;51.512;-0.382;2023-09-08T06:26:52;58.75;;;14.55;;
30036;SDS011;36325;51.512;-0.382;2023-09-08T06:29:21;27.67;;;12.73;;
30036;SDS011;36325;51.512;-0.382;2023-09-08T06:31:48;27.83;;;12.30;;
30036;SDS011;36325;51.512;-0.382;2023-09-08T06:34:15;25.50;;;11.38;;
30036;SDS011;36325;51.512;-0.382;2023-09-08T06:36:43;52.45;;;13.50;;
30036;SDS011;36325;51.512;-0.382;2023-09-08T06:39:11;38.22;;;13.20;;
30036;SDS011;36325;51.512;-0.382;2023-09-08T06:41:39;25.30;;;11.57;;
30036;SDS011;36325;51.512;-0.382;2023-09-08T06:44:10;83.70;;;16.50;;
30036;SDS011;36325;51.512;-0.382;2023-09-08T06:46:38;41.63;;;14.75;;
30036;SDS011;36325;51.512;-0.382;2023-09-08T06:49:05;24.05;;;11.05;;
30036;SDS011;36325;51.512;-0.382;2023-09-08T06:51:32;30.88;;;11.95;;
30036;SDS011;36325;51.512;-0.382;2023-09-08T06:54:00;46.97;;;12.80;;
30036;SDS011;36325;51.512;-0.382;2023-09-08T06:56:35;20.77;;;11.35;;
30036;SDS011;36325;51.512;-0.382;2023-09-08T06:59:05;21.83;;;11.82;;
30036;SDS011;36325;51.512;-0.382;2023-09-08T07:01:33;69.28;;;14.23;;
30036;SDS011;36325;51.512;-0.382;2023-09-08T07:04:00;27.45;;;10.55;;
30036;SDS011;36325;51.512;-0.382;2023-09-08T07:06:29;22.60;;;11.23;;
30036;SDS011;36325;51.512;-0.382;2023-09-08T07:08:57;22.70;;;12.23;;
30036;SDS011;36325;51.512;-0.382;2023-09-08T07:11:25;21.65;;;11.70;;
30036;SDS011;36325;51.512;-0.382;2023-09-08T07:13:54;22.02;;;11.60;;
30036;SDS011;36325;51.512;-0.382;2023-09-08T07:16:21;28.23;;;11.27;;
30036;SDS011;36325;51.512;-0.382;2023-09-08T07:18:50;24.88;;;10.90;;
30036;SDS011;36325;51.512;-0.382;2023-09-08T07:21:17;21.65;;;10.52;;
30036;SDS011;36325;51.512;-0.382;2023-09-08T07:23:45;17.77;;;10.18;;
30036;SDS011;36325;51.512;-0.382;2023-09-08T07:26:14;18.73;;;10.93;;
30036;SDS011;36325;51.512;-0.382;2023-09-08T07:28:45;40.33;;;10.85;;
30036;SDS011;36325;51.512;-0.382;2023-09-08T07:31:15;22.40;;;11.38;;
30036;SDS011;36325;51.512;-0.382;2023-09-08T07:33:44;18.95;;;10.05;;
30036;SDS011;36325;51.512;-0.382;2023-09-08T07:36:13;25.70;;;10.63;;
30036;SDS011;36325;51.512;-0.382;2023-09-08T07:38:43;16.88;;;10.27;;
30036;SDS011;36325;51.512;-0.382;2023-09-08T07:41:10;14.35;;;9.68;;
30036;SDS011;36325;51.512;-0.382;2023-09-08T07:43:40;22.92;;;9.77;;
30036;SDS011;36325;51.512;-0.382;2023-09-08T07:46:11;20.38;;;10.02;;
30036;SDS011;36325;51.512;-0.382;2023-09-08T07:48:40;17.85;;;9.90;;
30036;SDS011;36325;51.512;-0.382;2023-09-08T07:51:08;24.15;;;9.63;;
30036;SDS011;36325;51.512;-0.382;2023-09-08T07:53:41;23.38;;;9.93;;
30036;SDS011;36325;51.512;-0.382;2023-09-08T07:56:10;22.25;;;9.65;;
30036;SDS011;36325;51.512;-0.382;2023-09-08T07:58:38;19.23;;;8.98;;
30036;SDS011;36325;51.512;-0.382;2023-09-08T08:01:06;22.77;;;9.80;;
30036;SDS011;36325;51.512;-0.382;2023-09-08T08:03:34;22.08;;;10.45;;
30036;SDS011;36325;51.512;-0.382;2023-09-08T08:06:04;28.52;;;10.02;;
30036;SDS011;36325;51.512;-0.382;2023-09-08T08:08:32;17.23;;;8.98;;
30036;SDS011;36325;51.512;-0.382;2023-09-08T08:11:14;25.98;;;7.75;;
30036;SDS011;36325;51.512;-0.382;2023-09-08T08:13:45;12.43;;;7.43;;
30036;SDS011;36325;51.512;-0.382;2023-09-08T08:16:12;16.27;;;7.35;;
30036;SDS011;36325;51.512;-0.382;2023-09-08T08:18:40;12.65;;;6.63;;
30036;SDS011;36325;51.512;-0.382;2023-09-08T08:21:07;16.13;;;6.90;;
30036;SDS011;36325;51.512;-0.382;2023-09-08T08:23:37;11.85;;;7.30;;
30036;SDS011;36325;51.512;-0.382;2023-09-08T08:26:05;9.40;;;6.05;;
30036;SDS011;36325;51.512;-0.382;2023-09-08T08:28:35;14.60;;;6.53;;
30036;SDS011;36325;51.512;-0.382;2023-09-08T08:31:04;11.10;;;6.40;;
30036;SDS011;36325;51.512;-0.382;2023-09-08T08:33:32;15.45;;;7.15;;
30036;SDS011;36325;51.512;-0.382;2023-09-08T08:35:59;13.43;;;7.18;;
30036;SDS011;36325;51.512;-0.382;2023-09-08T08:38:28;19.90;;;7.38;;
30036;SDS011;36325;51.512;-0.382;2023-09-08T08:41:01;11.02;;;6.78;;
30036;SDS011;36325;51.512;-0.382;2023-09-08T08:43:31;9.65;;;6.35;;
30036;SDS011;36325;51.512;-0.382;2023-09-08T08:46:03;13.25;;;7.97;;
30036;SDS011;36325;51.512;-0.382;2023-09-08T08:48:33;14.32;;;7.40;;
30036;SDS011;36325;51.512;-0.382;2023-09-08T08:51:02;6.95;;;5.85;;
30036;SDS011;36325;51.512;-0.382;2023-09-08T08:53:31;16.42;;;6.30;;
30036;SDS011;36325;51.512;-0.382;2023-09-08T08:56:02;20.77;;;6.38;;
30036;SDS011;36325;51.512;-0.382;2023-09-08T08:58:33;10.88;;;6.50;;
30036;SDS011;36325;51.512;-0.382;2023-09-08T09:01:09;144.05;;;15.88;;
30036;SDS011;36325;51.512;-0.382;2023-09-08T09:03:43;20.27;;;6.43;;
30036;SDS011;36325;51.512;-0.382;2023-09-08T09:06:13;10.18;;;6.75;;
30036;SDS011;36325;51.512;-0.382;2023-09-08T09:08:42;13.23;;;6.65;;
30036;SDS011;36325;51.512;-0.382;2023-09-08T09:11:11;13.45;;;5.88;;
30036;SDS011;36325;51.512;-0.382;2023-09-08T09:13:38;10.75;;;6.53;;
30036;SDS011;36325;51.512;-0.382;2023-09-08T09:16:08;14.32;;;6.32;;
30036;SDS011;36325;51.512;-0.382;2023-09-08T09:19:17;9.73;;;5.95;;
30036;SDS011;36325;51.512;-0.382;2023-09-08T09:21:41;11.20;;;7.75;;
30036;SDS011;36325;51.512;-0.382;2023-09-08T09:24:28;10.32;;;6.13;;
30036;SDS011;36325;51.512;-0.382;2023-09-08T09:26:59;10.82;;;7.15;;
30036;SDS011;36325;51.512;-0.382;2023-09-08T09:29:28;11.73;;;6.57;;
30036;SDS011;36325;51.512;-0.382;2023-09-08T09:31:57;21.23;;;6.43;;
30036;SDS011;36325;51.512;-0.382;2023-09-08T09:34:31;15.20;;;6.82;;
30036;SDS011;36325;51.512;-0.382;2023-09-08T09:36:59;10.95;;;6.03;;
30036;SDS011;36325;51.512;-0.382;2023-09-08T09:39:36;14.23;;;6.85;;
30036;SDS011;36325;51.512;-0.382;2023-09-08T09:42:04;16.70;;;6.90;;
30036;SDS011;36325;51.512;-0.382;2023-09-08T09:44:31;13.45;;;7.03;;
30036;SDS011;36325;51.512;-0.382;2023-09-08T09:47:00;12.18;;;7.03;;
30036;SDS011;36325;51.512;-0.382;2023-09-08T09:49:30;20.65;;;8.40;;
30036;SDS011;36325;51.512;-0.382;2023-09-08T09:51:59;22.42;;;7.57;;
30036;SDS011;36325;51.512;-0.382;2023-09-08T09:54:27;12.10;;;7.72;;
30036;SDS011;36325;51.512;-0.382;2023-09-08T09:56:56;13.20;;;6.85;;
30036;SDS011;36325;51.512;-0.382;2023-09-08T09:59:25;13.98;;;7.10;;
30036;SDS011;36325;51.512;-0.382;2023-09-08T10:01:53;13.05;;;6.30;;
30036;SDS011;36325;51.512;-0.382;2023-09-08T10:04:26;17.58;;;7.63;;
30036;SDS011;36325;51.512;-0.382;2023-09-08T10:06:55;20.00;;;8.25;;
30036;SDS011;36325;51.512;-0.382;2023-09-08T10:09:26;19.33;;;7.93;;
30036;SDS011;36325;51.512;-0.382;2023-09-08T10:11:54;20.83;;;9.23;;
30036;SDS011;36325;51.512;-0.382;2023-09-08T10:14:24;21.95;;;10.85;;
30036;SDS011;36325;51.512;-0.382;2023-09-08T10:16:59;17.90;;;9.00;;
30036;SDS011;36325;51.512;-0.382;2023-09-08T10:19:29;21.73;;;8.88;;
30036;SDS011;36325;51.512;-0.382;2023-09-08T10:21:59;12.82;;;7.57;;
30036;SDS011;36325;51.512;-0.382;2023-09-08T10:24:32;16.63;;;8.60;;
30036;SDS011;36325;51.512;-0.382;2023-09-08T10:27:08;10.95;;;7.65;;
30036;SDS011;36325;51.512;-0.382;2023-09-08T10:29:39;13.98;;;7.22;;
30036;SDS011;36325;51.512;-0.382;2023-09-08T10:32:09;12.15;;;6.95;;
30036;SDS011;36325;51.512;-0.382;2023-09-08T10:34:45;15.10;;;6.97;;
30036;SDS011;36325;51.512;-0.382;2023-09-08T10:37:25;9.23;;;6.43;;
30036;SDS011;36325;51.512;-0.382;2023-09-08T10:39:56;15.75;;;7.10;;
30036;SDS011;36325;51.512;-0.382;2023-09-08T10:42:48;10.00;;;6.65;;
30036;SDS011;36325;51.512;-0.382;2023-09-08T10:45:18;12.30;;;6.70;;
30036;SDS011;36325;51.512;-0.382;2023-09-08T10:50:20;11.45;;;5.88;;
30036;SDS011;36325;51.512;-0.382;2023-09-08T10:53:07;9.38;;;5.20;;
30036;SDS011;36325;51.512;-0.382;2023-09-08T10:55:41;10.32;;;5.13;;
30036;SDS011;36325;51.512;-0.382;2023-09-08T10:58:36;16.70;;;5.35;;
30036;SDS011;36325;51.512;-0.382;2023-09-08T11:01:16;12.77;;;5.68;;
30036;SDS011;36325;51.512;-0.382;2023-09-08T11:03:46;8.60;;;5.10;;
30036;SDS011;36325;51.512;-0.382;2023-09-08T11:06:17;9.95;;;4.30;;
30036;SDS011;36325;51.512;-0.382;2023-09-08T11:08:48;5.78;;;4.05;;
30036;SDS011;36325;51.512;-0.382;2023-09-08T11:11:19;7.35;;;4.28;;
30036;SDS011;36325;51.512;-0.382;2023-09-08T11:13:47;5.88;;;4.57;;
30036;SDS011;36325;51.512;-0.382;2023-09-08T11:16:16;10.73;;;5.10;;
30036;SDS011;36325;51.512;-0.382;2023-09-08T11:18:50;11.00;;;4.90;;
30036;SDS011;36325;51.512;-0.382;2023-09-08T11:21:18;8.55;;;4.82;;
30036;SDS011;36325;51.512;-0.382;2023-09-08T11:23:49;10.82;;;4.47;;
30036;SDS011;36325;51.512;-0.382;2023-09-08T11:26:18;7.93;;;4.68;;
30036;SDS011;36325;51.512;-0.382;2023-09-08T11:28:45;9.57;;;4.13;;
30036;SDS011;36325;51.512;-0.382;2023-09-08T11:31:18;13.05;;;4.22;;
30036;SDS011;36325;51.512;-0.382;2023-09-08T11:33:48;10.90;;;4.25;;
30036;SDS011;36325;51.512;-0.382;2023-09-08T11:36:16;10.10;;;4.20;;
30036;SDS011;36325;51.512;-0.382;2023-09-08T11:38:43;11.02;;;4.53;;
30036;SDS011;36325;51.512;-0.382;2023-09-08T11:41:13;6.75;;;3.63;;
30036;SDS011;36325;51.512;-0.382;2023-09-08T11:43:40;10.02;;;4.38;;
30036;SDS011;36325;51.512;-0.382;2023-09-08T11:46:08;9.80;;;4.53;;
30036;SDS011;36325;51.512;-0.382;2023-09-08T11:48:37;8.82;;;4.38;;
30036;SDS011;36325;51.512;-0.382;2023-09-08T11:51:08;8.65;;;4.93;;
30036;SDS011;36325;51.512;-0.382;2023-09-08T11:53:37;6.10;;;3.90;;
30036;SDS011;36325;51.512;-0.382;2023-09-08T11:56:06;22.40;;;5.45;;
30036;SDS011;36325;51.512;-0.382;2023-09-08T11:58:33;7.65;;;4.22;;
30036;SDS011;36325;51.512;-0.382;2023-09-08T12:01:02;8.52;;;4.45;;
30036;SDS011;36325;51.512;-0.382;2023-09-08T12:03:33;17.27;;;4.90;;
30036;SDS011;36325;51.512;-0.382;2023-09-08T12:06:02;47.58;;;7.90;;
30036;SDS011;36325;51.512;-0.382;2023-09-08T12:08:30;13.13;;;4.72;;
30036;SDS011;36325;51.512;-0.382;2023-09-08T12:10:58;10.75;;;5.30;;
30036;SDS011;36325;51.512;-0.382;2023-09-08T12:13:26;7.60;;;4.65;;
30036;SDS011;36325;51.512;-0.382;2023-09-08T12:15:55;5.60;;;4.32;;
30036;SDS011;36325;51.512;-0.382;2023-09-08T12:18:37;9.88;;;5.05;;
30036;SDS011;36325;51.512;-0.382;2023-09-08T12:21:06;12.05;;;5.65;;
30036;SDS011;36325;51.512;-0.382;2023-09-08T12:23:35;13.27;;;4.63;;
30036;SDS011;36325;51.512;-0.382;2023-09-08T12:26:18;12.75;;;4.88;;
30036;SDS011;36325;51.512;-0.382;2023-09-08T12:28:47;7.72;;;4.88;;
30036;SDS011;36325;51.512;-0.382;2023-09-08T12:31:16;8.95;;;5.07;;
30036;SDS011;36325;51.512;-0.382;2023-09-08T12:33:47;8.43;;;4.80;;
30036;SDS011;36325;51.512;-0.382;2023-09-08T12:36:18;19.35;;;5.13;;
30036;SDS011;36325;51.512;-0.382;2023-09-08T12:38:47;12.68;;;5.00;;
30036;SDS011;36325;51.512;-0.382;2023-09-08T12:41:24;6.82;;;4.60;;
30036;SDS011;36325;51.512;-0.382;2023-09-08T12:43:52;15.65;;;4.80;;
30036;SDS011;36325;51.512;-0.382;2023-09-08T12:49:07;7.88;;;5.00;;
30036;SDS011;36325;51.512;-0.382;2023-09-08T12:51:35;7.07;;;5.05;;
30036;SDS011;36325;51.512;-0.382;2023-09-08T12:54:05;11.00;;;4.95;;
30036;SDS011;36325;51.512;-0.382;2023-09-08T12:56:32;7.38;;;4.55;;
30036;SDS011;36325;51.512;-0.382;2023-09-08T12:58:59;9.18;;;4.72;;
30036;SDS011;36325;51.512;-0.382;2023-09-08T13:01:28;7.05;;;4.10;;
30036;SDS011;36325;51.512;-0.382;2023-09-08T13:03:55;6.43;;;4.20;;
30036;SDS011;36325;51.512;-0.382;2023-09-08T13:06:23;12.13;;;5.25;;
30036;SDS011;36325;51.512;-0.382;2023-09-08T13:08:58;6.60;;;4.55;;
30036;SDS011;36325;51.512;-0.382;2023-09-08T13:11:28;9.60;;;5.00;;
30036;SDS011;36325;51.512;-0.382;2023-09-08T13:13:56;8.52;;;4.80;;
30036;SDS011;36325;51.512;-0.382;2023-09-08T13:16:24;9.05;;;4.40;;
30036;SDS011;36325;51.512;-0.382;2023-09-08T13:18:52;5.80;;;4.05;;
30036;SDS011;36325;51.512;-0.382;2023-09-08T13:21:19;12.43;;;4.85;;
30036;SDS011;36325;51.512;-0.382;2023-09-08T13:23:49;8.30;;;5.15;;
30036;SDS011;36325;51.512;-0.382;2023-09-08T13:26:19;11.60;;;4.55;;
30036;SDS011;36325;51.512;-0.382;2023-09-08T13:28:46;6.32;;;4.55;;
30036;SDS011;36325;51.512;-0.382;2023-09-08T13:31:15;8.40;;;4.68;;
30036;SDS011;36325;51.512;-0.382;2023-09-08T13:33:42;9.30;;;5.03;;
30036;SDS011;36325;51.512;-0.382;2023-09-08T13:36:11;8.18;;;4.95;;
30036;SDS011;36325;51.512;-0.382;2023-09-08T13:38:39;12.88;;;5.63;;
30036;SDS011;36325;51.512;-0.382;2023-09-08T13:41:07;8.85;;;5.65;;
30036;SDS011;36325;51.512;-0.382;2023-09-08T13:43:34;12.20;;;5.63;;
30036;SDS011;36325;51.512;-0.382;2023-09-08T13:46:02;6.00;;;4.28;;
30036;SDS011;36325;51.512;-0.382;2023-09-08T13:48:30;13.45;;;5.15;;
30036;SDS011;36325;51.512;-0.382;2023-09-08T13:51:02;15.65;;;5.80;;
30036;SDS011;36325;51.512;-0.382;2023-09-08T13:53:44;16.10;;;5.30;;
30036;SDS011;36325;51.512;-0.382;2023-09-08T13:56:13;6.35;;;4.38;;
30036;SDS011;36325;51.512;-0.382;2023-09-08T13:58:44;9.85;;;4.15;;
30036;SDS011;36325;51.512;-0.382;2023-09-08T14:01:16;8.57;;;4.78;;
30036;SDS011;36325;51.512;-0.382;2023-09-08T14:03:52;8.60;;;5.28;;
30036;SDS011;36325;51.512;-0.382;2023-09-08T14:06:29;13.55;;;5.07;;
30036;SDS011;36325;51.512;-0.382;2023-09-08T14:09:02;8.00;;;4.95;;
30036;SDS011;36325;51.512;-0.382;2023-09-08T14:14:22;17.88;;;4.68;;
30036;SDS011;36325;51.512;-0.382;2023-09-08T14:16:51;10.20;;;5.32;;
30036;SDS011;36325;51.512;-0.382;2023-09-08T14:19:28;7.68;;;4.45;;
30036;SDS011;36325;51.512;-0.382;2023-09-08T14:21:57;6.05;;;4.15;;
30036;SDS011;36325;51.512;-0.382;2023-09-08T14:24:25;5.93;;;4.32;;
30036;SDS011;36325;51.512;-0.382;2023-09-08T14:26:56;7.07;;;4.55;;
30036;SDS011;36325;51.512;-0.382;2023-09-08T14:29:24;6.93;;;4.93;;
30036;SDS011;36325;51.512;-0.382;2023-09-08T14:31:52;6.93;;;4.28;;
30036;SDS011;36325;51.512;-0.382;2023-09-08T14:34:21;11.00;;;4.78;;
30036;SDS011;36325;51.512;-0.382;2023-09-08T14:37:02;18.88;;;4.80;;
30036;SDS011;36325;51.512;-0.382;2023-09-08T14:39:31;6.97;;;4.78;;
30036;SDS011;36325;51.512;-0.382;2023-09-08T14:41:59;7.75;;;4.32;;
30036;SDS011;36325;51.512;-0.382;2023-09-08T14:44:28;12.82;;;4.50;;
30036;SDS011;36325;51.512;-0.382;2023-09-08T14:47:01;7.45;;;4.93;;